createdAt,value
2022-10-20T00:01:29.973Z,14.02
2022-10-20T00:04:01.202Z,14.00
2022-10-20T00:06:30.773Z,14.00
2022-10-20T00:08:59.895Z,14.00
2022-10-20T00:11:28.250Z,14.02
2022-10-20T00:14:00.753Z,14.02
2022-10-20T00:16:30.005Z,13.99
2022-10-20T00:18:57.617Z,13.97
2022-10-20T00:21:26.692Z,13.98
2022-10-20T00:24:13.870Z,13.97
2022-10-20T00:26:40.392Z,13.97
2022-10-20T00:29:06.903Z,13.98
2022-10-20T00:31:33.391Z,13.96
2022-10-20T00:34:01.619Z,13.92
2022-10-20T00:36:28.407Z,13.90
2022-10-20T00:39:02.406Z,13.86
2022-10-20T00:41:29.294Z,13.85
2022-10-20T00:43:59.663Z,13.85
2022-10-20T00:46:32.167Z,13.84
2022-10-20T00:49:17.881Z,13.83
2022-10-20T00:51:44.793Z,13.82
2022-10-20T00:54:22.617Z,13.81
2022-10-20T00:56:50.549Z,13.81
2022-10-20T00:59:21.831Z,13.78
2022-10-20T01:01:49.578Z,13.78
2022-10-20T01:04:20.627Z,13.76
2022-10-20T01:06:47.272Z,13.76
2022-10-20T01:09:13.862Z,13.75
2022-10-20T01:12:01.630Z,13.71
2022-10-20T01:15:03.870Z,13.67
2022-10-20T01:17:37.341Z,13.65
2022-10-20T01:20:19.730Z,13.64
2022-10-20T01:22:58.271Z,13.62
2022-10-20T01:25:53.486Z,13.61
2022-10-20T01:28:58.572Z,13.60
2022-10-20T01:31:40.851Z,13.58
2022-10-20T01:34:22.468Z,13.54
2022-10-20T01:36:58.962Z,13.54
2022-10-20T01:39:32.710Z,13.54
2022-10-20T01:42:06.069Z,13.53
2022-10-20T01:44:38.339Z,13.50
2022-10-20T01:47:06.549Z,13.50
2022-10-20T01:49:33.206Z,13.51
2022-10-20T01:52:00.558Z,13.51
2022-10-20T01:54:31.331Z,13.52
2022-10-20T01:57:22.008Z,13.53
2022-10-20T02:00:01.431Z,13.51
2022-10-20T02:02:55.636Z,13.49
2022-10-20T02:05:32.709Z,13.48
2022-10-20T02:08:17.997Z,13.46
2022-10-20T02:10:58.886Z,13.48
2022-10-20T02:13:26.782Z,13.51
2022-10-20T02:15:56.113Z,13.52
2022-10-20T02:18:30.883Z,13.51
2022-10-20T02:21:00.684Z,13.53
2022-10-20T02:23:34.996Z,13.57
2022-10-20T02:26:07.246Z,13.60
2022-10-20T02:28:37.189Z,13.64
2022-10-20T02:31:04.773Z,13.67
2022-10-20T02:33:32.025Z,13.68
2022-10-20T02:35:59.994Z,13.69
2022-10-20T02:38:26.875Z,13.70
2022-10-20T02:40:53.329Z,13.71
2022-10-20T02:43:19.842Z,13.70
2022-10-20T02:45:47.478Z,13.71
2022-10-20T02:48:14.005Z,13.69
2022-10-20T02:50:40.478Z,13.70
2022-10-20T02:53:07.009Z,13.71
2022-10-20T02:55:33.514Z,13.73
2022-10-20T02:58:00.080Z,13.74
2022-10-20T03:00:30.839Z,13.73
2022-10-20T03:02:57.466Z,13.70
2022-10-20T03:05:24.074Z,13.67
2022-10-20T03:07:50.922Z,13.64
2022-10-20T03:10:17.495Z,13.61
2022-10-20T03:12:44.226Z,13.58
2022-10-20T03:15:12.375Z,13.56
2022-10-20T03:17:39.218Z,13.56
2022-10-20T03:20:06.747Z,13.57
2022-10-20T03:22:33.283Z,13.57
2022-10-20T03:25:04.398Z,13.56
2022-10-20T03:27:30.895Z,13.54
2022-10-20T03:29:57.445Z,13.51
2022-10-20T03:32:23.962Z,13.51
2022-10-20T03:34:51.675Z,13.51
2022-10-20T03:37:18.180Z,13.50
2022-10-20T03:39:44.667Z,13.51
2022-10-20T03:42:11.171Z,13.52
2022-10-20T03:44:44.902Z,13.51
2022-10-20T03:47:12.919Z,13.51
2022-10-20T03:49:39.569Z,13.52
2022-10-20T03:52:06.118Z,13.52
2022-10-20T03:54:37.414Z,13.53
2022-10-20T03:57:06.917Z,13.54
2022-10-20T03:59:34.519Z,13.55
2022-10-20T04:02:01.092Z,13.55
2022-10-20T04:04:32.118Z,13.56
2022-10-20T04:06:58.800Z,13.59
2022-10-20T04:09:25.483Z,13.61
2022-10-20T04:11:52.155Z,13.64
2022-10-20T04:14:21.901Z,13.65
2022-10-20T04:16:48.433Z,13.66
2022-10-20T04:19:15.090Z,13.67
2022-10-20T04:21:41.640Z,13.68
2022-10-20T04:24:12.121Z,13.69
2022-10-20T04:26:38.815Z,13.73
2022-10-20T04:29:05.318Z,13.74
2022-10-20T04:31:31.773Z,13.79
2022-10-20T04:34:01.455Z,13.82
2022-10-20T04:36:27.964Z,13.84
2022-10-20T04:38:54.499Z,13.85
2022-10-20T04:41:20.970Z,13.88
2022-10-20T04:43:52.136Z,13.90
2022-10-20T04:46:19.268Z,13.91
2022-10-20T04:48:45.818Z,13.92
2022-10-20T04:51:14.762Z,13.93
2022-10-20T04:53:41.797Z,13.95
2022-10-20T04:56:12.328Z,13.97
2022-10-20T04:58:38.837Z,13.97
2022-10-20T05:01:08.100Z,13.98
2022-10-20T05:03:35.652Z,13.99
2022-10-20T05:06:13.737Z,14.01
2022-10-20T05:08:41.405Z,14.04
2022-10-20T05:11:08.348Z,14.06
2022-10-20T05:13:34.859Z,14.07
2022-10-20T05:16:03.393Z,14.07
2022-10-20T05:18:29.963Z,14.08
2022-10-20T05:21:08.528Z,14.10
2022-10-20T05:23:36.150Z,14.12
2022-10-20T05:26:08.290Z,14.13
2022-10-20T05:28:35.077Z,14.15
2022-10-20T05:31:06.633Z,14.17
2022-10-20T05:33:33.896Z,14.20
2022-10-20T05:36:07.406Z,14.23
2022-10-20T05:38:35.803Z,14.26
2022-10-20T05:41:10.380Z,14.30
2022-10-20T05:43:37.177Z,14.32
2022-10-20T05:46:04.308Z,14.31
2022-10-20T05:48:32.218Z,14.30
2022-10-20T05:51:14.756Z,14.27
2022-10-20T05:53:42.322Z,14.29
2022-10-20T05:56:12.727Z,14.32
2022-10-20T05:58:40.086Z,14.35
2022-10-20T06:01:11.028Z,14.41
2022-10-20T06:03:37.802Z,14.46
2022-10-20T06:06:04.921Z,14.51
2022-10-20T06:08:33.287Z,14.55
2022-10-20T06:11:08.887Z,14.61
2022-10-20T06:13:36.371Z,14.67
2022-10-20T06:16:05.303Z,14.73
2022-10-20T06:18:33.282Z,14.78
2022-10-20T06:21:04.670Z,14.81
2022-10-20T06:23:31.147Z,14.86
2022-10-20T06:26:03.507Z,14.89
2022-10-20T06:28:31.734Z,14.96
2022-10-20T06:30:59.149Z,15.00
2022-10-20T06:33:25.912Z,15.03
2022-10-20T06:35:52.463Z,15.07
2022-10-20T06:38:18.951Z,15.10
2022-10-20T06:40:45.462Z,15.10
2022-10-20T06:43:11.910Z,15.13
2022-10-20T06:45:38.397Z,15.14
2022-10-20T06:48:05.197Z,15.16
2022-10-20T06:50:33.957Z,15.18
2022-10-20T06:53:00.473Z,15.22
2022-10-20T06:55:30.891Z,15.27
2022-10-20T06:57:57.560Z,15.31
2022-10-20T07:00:24.038Z,15.34
2022-10-20T07:02:50.554Z,15.35
2022-10-20T07:05:19.782Z,15.37
2022-10-20T07:07:46.221Z,15.39
2022-10-20T07:10:12.693Z,15.43
2022-10-20T07:12:39.517Z,15.45
2022-10-20T07:15:08.059Z,15.50
2022-10-20T07:17:34.509Z,15.54
2022-10-20T07:20:01.427Z,15.56
2022-10-20T07:22:27.884Z,15.61
2022-10-20T07:25:06.050Z,15.64
2022-10-20T07:27:32.600Z,15.68
2022-10-20T07:29:59.047Z,15.73
2022-10-20T07:32:25.533Z,15.75
2022-10-20T07:34:56.621Z,15.76
2022-10-20T07:37:23.117Z,15.79
2022-10-20T07:39:49.646Z,15.80
2022-10-20T07:42:16.094Z,15.82
2022-10-20T07:44:46.911Z,15.86
2022-10-20T07:47:13.471Z,15.89
2022-10-20T07:49:44.348Z,15.91
2022-10-20T07:52:11.725Z,15.94
2022-10-20T07:54:38.322Z,15.97
2022-10-20T07:57:04.951Z,16.00
2022-10-20T07:59:31.569Z,16.04
2022-10-20T08:01:59.912Z,16.08
2022-10-20T08:04:31.283Z,16.14
2022-10-20T08:06:58.989Z,16.22
2022-10-20T08:09:25.526Z,16.27
2022-10-20T08:11:55.354Z,16.32
2022-10-20T08:14:27.395Z,16.37
2022-10-20T08:16:57.822Z,16.42
2022-10-20T08:19:37.814Z,16.47
2022-10-20T08:22:04.541Z,16.51
2022-10-20T08:24:35.995Z,16.53
2022-10-20T08:27:03.232Z,16.55
2022-10-20T08:29:29.863Z,16.59
2022-10-20T08:31:56.365Z,16.64
2022-10-20T08:34:27.283Z,16.68
2022-10-20T08:36:53.744Z,16.74
2022-10-20T08:39:20.411Z,16.80
2022-10-20T08:42:06.952Z,16.86
2022-10-20T08:44:36.315Z,16.94
2022-10-20T08:47:05.921Z,17.00
2022-10-20T08:49:35.091Z,17.05
2022-10-20T08:52:02.264Z,17.10
2022-10-20T08:54:34.606Z,17.15
2022-10-20T08:57:01.108Z,17.22
2022-10-20T08:59:33.322Z,17.25
2022-10-20T09:02:00.869Z,17.29
2022-10-20T09:04:38.734Z,17.34
2022-10-20T09:07:16.140Z,17.40
2022-10-20T09:09:43.060Z,17.43
2022-10-20T09:12:13.464Z,17.45
2022-10-20T09:14:41.851Z,17.48
2022-10-20T09:17:16.941Z,17.51
2022-10-20T09:19:52.267Z,17.55
2022-10-20T09:22:29.890Z,17.60
2022-10-20T09:25:04.207Z,17.67
2022-10-20T09:27:39.686Z,17.68
2022-10-20T09:30:17.302Z,17.72
2022-10-20T09:32:47.227Z,17.75
2022-10-20T09:35:25.166Z,17.75
2022-10-20T09:38:09.570Z,17.77
2022-10-20T09:40:43.261Z,17.81
2022-10-20T09:43:15.988Z,17.83
2022-10-20T09:45:54.494Z,17.86
2022-10-20T09:48:27.402Z,17.90
2022-10-20T09:50:56.539Z,17.94
2022-10-20T09:53:33.507Z,17.99
2022-10-20T09:56:00.255Z,18.03
2022-10-20T09:58:37.906Z,18.06
2022-10-20T10:01:12.909Z,18.10
2022-10-20T10:03:40.542Z,18.13
2022-10-20T10:06:32.833Z,18.17
2022-10-20T10:09:02.081Z,18.21
2022-10-20T10:11:34.663Z,18.21
2022-10-20T10:14:05.905Z,18.22
2022-10-20T10:16:43.036Z,18.25
2022-10-20T10:19:17.893Z,18.27
2022-10-20T10:21:48.367Z,18.31
2022-10-20T10:24:36.127Z,18.34
2022-10-20T10:27:02.614Z,18.34
2022-10-20T10:29:36.412Z,18.32
2022-10-20T10:32:28.646Z,18.32
2022-10-20T10:35:10.220Z,18.33
2022-10-20T10:37:40.108Z,18.33
2022-10-20T10:40:53.213Z,18.30
2022-10-20T10:43:32.233Z,18.32
2022-10-20T10:46:02.802Z,18.33
2022-10-20T10:48:31.936Z,18.34
2022-10-20T10:51:26.213Z,18.34
2022-10-20T10:54:17.439Z,18.36
2022-10-20T10:56:47.741Z,18.37
2022-10-20T10:59:17.550Z,18.36
2022-10-20T11:02:08.454Z,18.36
2022-10-20T11:05:27.481Z,18.35
2022-10-20T11:08:33.159Z,18.35
2022-10-20T11:11:27.691Z,18.32
2022-10-20T11:14:17.141Z,18.31
2022-10-20T11:16:50.275Z,18.31
2022-10-20T11:19:34.205Z,18.31
2022-10-20T11:22:22.370Z,18.34
2022-10-20T11:25:36.111Z,18.34
2022-10-20T11:28:02.904Z,18.36
2022-10-20T11:30:30.962Z,18.33
2022-10-20T11:33:19.254Z,18.30
2022-10-20T11:36:19.182Z,18.29
2022-10-20T11:38:53.879Z,18.29
2022-10-20T11:41:27.985Z,18.29
2022-10-20T11:44:24.559Z,18.24
2022-10-20T11:47:03.926Z,18.21
2022-10-20T11:49:32.506Z,18.18
2022-10-20T11:52:20.706Z,18.18
2022-10-20T11:55:02.763Z,18.17
2022-10-20T11:58:19.731Z,18.14
2022-10-20T12:01:05.066Z,18.15
2022-10-20T12:04:05.364Z,18.12
2022-10-20T12:06:47.347Z,18.10
2022-10-20T12:09:16.808Z,18.09
2022-10-20T12:12:02.465Z,18.09
2022-10-20T12:14:42.565Z,18.10
2022-10-20T12:17:14.118Z,18.13
2022-10-20T12:19:41.045Z,18.16
2022-10-20T12:22:16.292Z,18.22
2022-10-20T12:25:18.190Z,18.29
2022-10-20T12:27:44.671Z,18.34
2022-10-20T12:30:38.703Z,18.36
2022-10-20T12:33:11.155Z,18.39
2022-10-20T12:36:24.497Z,18.41
2022-10-20T12:38:54.682Z,18.46
2022-10-20T12:41:46.362Z,18.46
2022-10-20T12:44:17.719Z,18.51
2022-10-20T12:47:06.185Z,18.54
2022-10-20T12:49:36.254Z,18.56
2022-10-20T12:52:04.744Z,18.62
2022-10-20T12:54:36.202Z,18.66
2022-10-20T12:57:07.671Z,18.68
2022-10-20T12:59:38.160Z,18.70
2022-10-20T13:02:10.783Z,18.71
2022-10-20T13:05:13.515Z,18.70
2022-10-20T13:07:45.995Z,18.76
2022-10-20T13:10:29.808Z,18.77
2022-10-20T13:13:02.203Z,18.78
2022-10-20T13:15:39.046Z,18.79
2022-10-20T13:18:11.502Z,18.78
2022-10-20T13:20:55.945Z,18.82
2022-10-20T13:23:29.565Z,18.90
2022-10-20T13:25:58.982Z,19.00
2022-10-20T13:28:28.394Z,19.11
2022-10-20T13:31:01.021Z,19.24
2022-10-20T13:34:02.653Z,19.34
2022-10-20T13:36:52.046Z,19.47
2022-10-20T13:39:33.767Z,19.57
2022-10-20T13:42:21.224Z,19.66
2022-10-20T13:45:25.891Z,19.74
2022-10-20T13:48:10.658Z,19.79
2022-10-20T13:50:44.022Z,19.85
2022-10-20T13:53:22.304Z,19.87
2022-10-20T13:56:08.160Z,19.89
2022-10-20T13:58:34.966Z,19.92
2022-10-20T14:01:07.470Z,19.95
2022-10-20T14:03:43.299Z,19.98
2022-10-20T14:06:28.259Z,19.97
2022-10-20T14:08:56.681Z,20.00
2022-10-20T14:11:23.713Z,20.03
2022-10-20T14:13:50.822Z,20.10
2022-10-20T14:16:21.929Z,20.19
2022-10-20T14:19:04.995Z,20.30
2022-10-20T14:21:51.780Z,20.41
2022-10-20T14:24:37.525Z,20.52
2022-10-20T14:27:04.925Z,20.57
2022-10-20T14:29:37.509Z,20.66
2022-10-20T14:32:05.219Z,20.72
2022-10-20T14:34:35.544Z,20.73
2022-10-20T14:37:03.133Z,20.75
2022-10-20T14:39:40.599Z,20.77
2022-10-20T14:42:28.565Z,20.82
2022-10-20T14:44:59.415Z,20.83
2022-10-20T14:47:33.974Z,20.83
2022-10-20T14:50:00.649Z,20.83
2022-10-20T14:52:35.527Z,20.82
2022-10-20T14:55:03.289Z,20.81
2022-10-20T14:57:43.906Z,20.78
2022-10-20T15:00:31.959Z,20.77
2022-10-20T15:03:02.938Z,20.77
2022-10-20T15:05:37.317Z,20.75
2022-10-20T15:08:31.298Z,20.70
2022-10-20T15:10:58.320Z,20.67
2022-10-20T15:13:30.835Z,20.64
2022-10-20T15:16:00.862Z,20.58
2022-10-20T15:18:28.658Z,20.55
2022-10-20T15:20:56.225Z,20.50
2022-10-20T15:23:25.571Z,20.47
2022-10-20T15:26:13.884Z,20.41
2022-10-20T15:28:46.126Z,20.37
2022-10-20T15:31:12.567Z,20.34
2022-10-20T15:33:42.086Z,20.28
2022-10-20T15:36:20.809Z,20.25
2022-10-20T15:38:48.681Z,20.22
2022-10-20T15:41:23.341Z,20.17
2022-10-20T15:43:49.835Z,20.17
2022-10-20T15:46:17.798Z,20.14
2022-10-20T15:48:44.900Z,20.11
2022-10-20T15:51:24.053Z,20.08
2022-10-20T15:53:50.596Z,20.06
2022-10-20T15:56:17.840Z,20.03
2022-10-20T15:58:44.656Z,19.99
2022-10-20T16:01:13.409Z,19.95
2022-10-20T16:03:41.328Z,19.90
2022-10-20T16:06:07.932Z,19.87
2022-10-20T16:08:35.342Z,19.85
2022-10-20T16:11:03.263Z,19.81
2022-10-20T16:13:32.069Z,19.79
2022-10-20T16:15:59.575Z,19.76
2022-10-20T16:18:26.336Z,19.74
2022-10-20T16:20:52.941Z,19.71
2022-10-20T16:23:19.670Z,19.67
2022-10-20T16:25:47.284Z,19.63
2022-10-20T16:28:13.818Z,19.58
2022-10-20T16:30:40.314Z,19.55
2022-10-20T16:33:06.867Z,19.52
2022-10-20T16:35:33.398Z,19.49
2022-10-20T16:38:00.987Z,19.46
2022-10-20T16:40:27.455Z,19.43
2022-10-20T16:42:53.901Z,19.39
2022-10-20T16:47:53.360Z,19.28
2022-10-20T16:50:19.858Z,19.26
2022-10-20T16:52:46.524Z,19.22
2022-10-20T16:55:16.965Z,19.20
2022-10-20T16:57:43.445Z,19.19
2022-10-20T17:00:10.409Z,19.17
2022-10-20T17:02:37.386Z,19.12
2022-10-20T17:05:08.189Z,19.08
2022-10-20T17:07:36.325Z,19.05
2022-10-20T17:10:03.101Z,19.03
2022-10-20T17:12:29.565Z,19.00
2022-10-20T17:14:56.075Z,18.96
2022-10-20T17:17:22.573Z,18.92
2022-10-20T17:19:49.040Z,18.90
2022-10-20T17:22:15.799Z,18.90
2022-10-20T17:24:45.166Z,18.89
2022-10-20T17:27:11.617Z,18.88
2022-10-20T17:29:38.099Z,18.86
2022-10-20T17:32:04.770Z,18.85
2022-10-20T17:34:32.096Z,18.82
2022-10-20T17:36:58.557Z,18.81
2022-10-20T17:39:25.094Z,18.79
2022-10-20T17:41:51.606Z,18.77
2022-10-20T17:44:20.007Z,18.75
2022-10-20T17:46:46.661Z,18.73
2022-10-20T17:49:13.207Z,18.74
2022-10-20T17:51:39.685Z,18.73
2022-10-20T17:54:07.895Z,18.71
2022-10-20T17:56:36.879Z,18.68
2022-10-20T17:59:05.469Z,18.68
2022-10-20T18:01:37.689Z,18.64
2022-10-20T18:04:08.988Z,18.61
2022-10-20T18:06:36.017Z,18.59
2022-10-20T18:09:06.673Z,18.55
2022-10-20T18:11:34.558Z,18.53
2022-10-20T18:14:05.889Z,18.52
2022-10-20T18:16:34.830Z,18.49
2022-10-20T18:19:01.498Z,18.49
2022-10-20T18:21:29.781Z,18.49
2022-10-20T18:24:02.943Z,18.48
2022-10-20T18:26:32.010Z,18.48
2022-10-20T18:29:00.077Z,18.47
2022-10-20T18:31:30.377Z,18.45
2022-10-20T18:34:05.668Z,18.43
2022-10-20T18:36:34.347Z,18.41
2022-10-20T18:39:00.958Z,18.40
2022-10-20T18:41:37.318Z,18.39
2022-10-20T18:44:14.048Z,18.37
2022-10-20T18:46:41.984Z,18.35
2022-10-20T18:49:11.003Z,18.35
2022-10-20T18:51:38.108Z,18.35
2022-10-20T18:54:09.415Z,18.36
2022-10-20T18:56:36.658Z,18.36
2022-10-20T18:59:09.351Z,18.37
2022-10-20T19:01:38.688Z,18.39
2022-10-20T19:04:10.455Z,18.40
2022-10-20T19:06:45.122Z,18.43
2022-10-20T19:09:18.323Z,18.45
2022-10-20T19:11:45.961Z,18.45
2022-10-20T19:14:14.284Z,18.47
2022-10-20T19:16:43.134Z,18.47
2022-10-20T19:19:10.825Z,18.47
2022-10-20T19:21:37.563Z,18.46
2022-10-20T19:24:08.174Z,18.47
2022-10-20T19:26:38.799Z,18.49
2022-10-20T19:29:11.074Z,18.52
2022-10-20T19:31:50.760Z,18.54
2022-10-20T19:34:24.332Z,18.52
2022-10-20T19:36:51.301Z,18.50
2022-10-20T19:41:57.676Z,18.51
2022-10-20T19:44:26.329Z,18.54
2022-10-20T19:46:52.946Z,18.57
2022-10-20T19:49:21.768Z,18.60
2022-10-20T19:51:48.429Z,18.63
2022-10-20T19:54:19.530Z,18.65
2022-10-20T19:56:46.409Z,18.69
2022-10-20T19:59:13.342Z,18.71
2022-10-20T20:01:40.072Z,18.72
2022-10-20T20:04:07.943Z,18.70
2022-10-20T20:06:34.983Z,18.70
2022-10-20T20:09:05.671Z,18.68
2022-10-20T20:11:34.339Z,18.68
2022-10-20T20:14:08.899Z,18.67
2022-10-20T20:16:35.805Z,18.67
2022-10-20T20:19:02.428Z,18.65
2022-10-20T20:21:28.935Z,18.65
2022-10-20T20:24:02.827Z,18.63
2022-10-20T20:26:31.840Z,18.60
2022-10-20T20:28:58.596Z,18.57
2022-10-20T20:31:26.473Z,18.57
2022-10-20T20:34:01.006Z,18.57
2022-10-20T20:36:28.174Z,18.57
2022-10-20T20:38:59.315Z,18.56
2022-10-20T20:41:28.149Z,18.55
2022-10-20T20:44:12.632Z,18.52
2022-10-20T20:46:39.226Z,18.50
2022-10-20T20:49:05.712Z,18.49
2022-10-20T20:51:34.807Z,18.43
2022-10-20T20:54:05.916Z,18.40
2022-10-20T20:56:32.616Z,18.37
2022-10-20T20:58:59.063Z,18.32
2022-10-20T21:01:27.716Z,18.28
2022-10-20T21:04:11.109Z,18.27
2022-10-20T21:07:00.624Z,18.28
2022-10-20T21:09:26.721Z,18.27
2022-10-20T21:11:53.238Z,18.23
2022-10-20T21:14:19.807Z,18.22
2022-10-20T21:16:46.405Z,18.20
2022-10-20T21:19:12.982Z,18.17
2022-10-20T21:21:47.124Z,18.18
2022-10-20T21:24:18.275Z,18.16
2022-10-20T21:26:44.788Z,18.15
2022-10-20T21:29:11.282Z,18.14
2022-10-20T21:31:39.361Z,18.14
2022-10-20T21:34:07.733Z,18.16
2022-10-20T21:36:36.099Z,18.17
2022-10-20T21:39:05.112Z,18.15
2022-10-20T21:41:33.553Z,18.15
2022-10-20T21:44:04.326Z,18.14
2022-10-20T21:46:33.025Z,18.14
2022-10-20T21:49:04.222Z,18.15
2022-10-20T21:51:37.152Z,18.13
2022-10-20T21:54:29.242Z,18.10
2022-10-20T21:56:56.666Z,18.10
2022-10-20T21:59:29.163Z,18.10
2022-10-20T22:02:00.992Z,18.10
2022-10-20T22:04:29.429Z,18.07
2022-10-20T22:06:56.621Z,18.06
2022-10-20T22:09:23.665Z,18.07
2022-10-20T22:11:52.782Z,18.05
2022-10-20T22:14:22.920Z,18.05
2022-10-20T22:16:49.491Z,18.05
2022-10-20T22:19:22.088Z,18.05
2022-10-20T22:21:50.491Z,18.05
2022-10-20T22:24:22.006Z,18.05
2022-10-20T22:26:51.627Z,18.05
2022-10-20T22:29:20.447Z,18.05
2022-10-20T22:31:47.007Z,18.02
2022-10-20T22:34:16.438Z,18.01
2022-10-20T22:36:44.315Z,18.03
2022-10-20T22:41:43.050Z,18.04
2022-10-20T22:44:14.186Z,18.04
2022-10-20T22:46:40.683Z,18.04
2022-10-20T22:49:07.175Z,18.05
2022-10-20T22:51:33.665Z,18.05
2022-10-20T22:54:01.698Z,18.06
2022-10-20T22:56:28.182Z,18.09
2022-10-20T22:58:54.990Z,18.13
2022-10-20T23:01:23.217Z,18.15
2022-10-20T23:03:50.600Z,18.18
2022-10-20T23:06:24.293Z,18.19
2022-10-20T23:08:54.179Z,18.20
2022-10-20T23:11:21.329Z,18.22
2022-10-20T23:13:48.311Z,18.21
2022-10-20T23:16:15.533Z,18.21
2022-10-20T23:18:42.584Z,18.22
2022-10-20T23:21:09.251Z,18.24
2022-10-20T23:23:37.351Z,18.23
2022-10-20T23:26:05.650Z,18.24
2022-10-20T23:28:32.905Z,18.25
2022-10-20T23:31:06.867Z,18.27
2022-10-20T23:33:33.503Z,18.29
2022-10-20T23:36:00.760Z,18.29
2022-10-20T23:38:27.241Z,18.30
2022-10-20T23:40:53.757Z,18.29
2022-10-20T23:43:20.225Z,18.28
2022-10-20T23:45:46.688Z,18.27
2022-10-20T23:48:13.704Z,18.27
2022-10-20T23:50:40.397Z,18.26
2022-10-20T23:53:06.895Z,18.26
2022-10-20T23:55:34.829Z,18.26
2022-10-20T23:58:01.416Z,18.25
